createdAt,value
2022-08-21T00:01:40.911Z,16.77
2022-08-21T00:04:09.086Z,16.71
2022-08-21T00:06:37.378Z,16.56
2022-08-21T00:09:06.829Z,16.48
2022-08-21T00:11:36.121Z,16.45
2022-08-21T00:14:04.810Z,16.44
2022-08-21T00:16:32.013Z,16.47
2022-08-21T00:18:58.889Z,16.48
2022-08-21T00:21:26.371Z,16.52
2022-08-21T00:23:53.384Z,16.54
2022-08-21T00:26:19.973Z,16.52
2022-08-21T00:28:50.137Z,16.53
2022-08-21T00:31:17.905Z,16.53
2022-08-21T00:33:45.173Z,16.45
2022-08-21T00:36:12.362Z,16.44
2022-08-21T00:38:38.942Z,16.42
2022-08-21T00:41:29.857Z,16.40
2022-08-21T00:43:55.915Z,16.35
2022-08-21T00:46:24.854Z,16.23
2022-08-21T00:48:57.262Z,16.20
2022-08-21T00:51:33.790Z,16.18
2022-08-21T00:54:05.771Z,16.13
2022-08-21T00:56:32.464Z,16.14
2022-08-21T00:59:01.224Z,16.06
2022-08-21T01:01:28.466Z,16.08
2022-08-21T01:03:55.240Z,16.08
2022-08-21T01:06:22.135Z,16.06
2022-08-21T01:08:49.301Z,16.08
2022-08-21T01:11:16.756Z,16.12
2022-08-21T01:13:47.265Z,16.11
2022-08-21T01:16:18.539Z,16.08
2022-08-21T01:18:46.968Z,16.09
2022-08-21T01:21:23.380Z,16.08
2022-08-21T01:23:56.239Z,16.07
2022-08-21T01:26:33.619Z,16.08
2022-08-21T01:29:08.373Z,16.09
2022-08-21T01:31:35.110Z,16.07
2022-08-21T01:34:02.370Z,16.07
2022-08-21T01:36:29.102Z,16.11
2022-08-21T01:38:56.607Z,16.13
2022-08-21T01:41:23.394Z,16.12
2022-08-21T01:43:50.537Z,16.19
2022-08-21T01:46:18.004Z,16.17
2022-08-21T01:48:44.678Z,16.19
2022-08-21T01:51:12.876Z,16.17
2022-08-21T01:53:40.144Z,16.17
2022-08-21T01:56:12.480Z,16.22
2022-08-21T01:58:40.545Z,16.25
2022-08-21T02:01:07.257Z,16.20
2022-08-21T02:03:35.609Z,16.21
2022-08-21T02:06:05.443Z,16.21
2022-08-21T02:08:32.237Z,16.16
2022-08-21T02:11:01.081Z,16.17
2022-08-21T02:13:27.739Z,16.16
2022-08-21T02:15:54.276Z,16.19
2022-08-21T02:18:21.035Z,16.16
2022-08-21T02:20:49.401Z,16.11
2022-08-21T02:23:26.491Z,16.07
2022-08-21T02:25:55.841Z,16.05
2022-08-21T02:28:22.731Z,16.06
2022-08-21T02:30:50.344Z,16.09
2022-08-21T02:33:17.191Z,16.01
2022-08-21T02:35:46.115Z,15.94
2022-08-21T02:38:16.706Z,16.02
2022-08-21T02:40:48.364Z,16.03
2022-08-21T02:43:19.456Z,15.92
2022-08-21T02:45:47.077Z,15.96
2022-08-21T02:48:17.836Z,16.05
2022-08-21T02:50:52.005Z,15.96
2022-08-21T02:53:19.077Z,16.03
2022-08-21T02:55:48.383Z,16.01
2022-08-21T02:58:17.792Z,16.07
2022-08-21T03:00:45.152Z,16.07
2022-08-21T03:03:12.432Z,16.09
2022-08-21T03:05:39.034Z,16.05
2022-08-21T03:08:11.415Z,16.06
2022-08-21T03:10:43.749Z,16.06
2022-08-21T03:13:11.015Z,16.03
2022-08-21T03:15:38.813Z,16.04
2022-08-21T03:18:06.075Z,16.09
2022-08-21T03:20:33.678Z,16.07
2022-08-21T03:23:01.323Z,16.11
2022-08-21T03:25:39.641Z,16.14
2022-08-21T03:28:13.019Z,16.17
2022-08-21T03:30:42.285Z,16.15
2022-08-21T03:33:09.193Z,16.17
2022-08-21T03:35:40.042Z,16.09
2022-08-21T03:38:06.669Z,16.10
2022-08-21T03:40:33.381Z,16.08
2022-08-21T03:43:00.027Z,16.10
2022-08-21T03:45:27.205Z,16.12
2022-08-21T03:48:02.711Z,16.18
2022-08-21T03:50:34.810Z,16.19
2022-08-21T03:53:01.741Z,16.22
2022-08-21T03:55:28.234Z,16.23
2022-08-21T03:57:54.758Z,16.27
2022-08-21T04:00:21.960Z,16.27
2022-08-21T04:02:49.845Z,16.29
2022-08-21T04:05:28.309Z,16.30
2022-08-21T04:07:56.898Z,16.31
2022-08-21T04:10:25.586Z,16.37
2022-08-21T04:12:53.550Z,16.39
2022-08-21T04:15:21.882Z,16.46
2022-08-21T04:17:49.420Z,16.51
2022-08-21T04:20:17.660Z,16.55
2022-08-21T04:22:45.450Z,16.61
2022-08-21T04:25:14.288Z,16.67
2022-08-21T04:27:41.431Z,16.71
2022-08-21T04:30:10.113Z,16.77
2022-08-21T04:32:38.374Z,16.80
2022-08-21T04:35:08.441Z,16.83
2022-08-21T04:37:35.877Z,16.84
2022-08-21T04:40:10.603Z,16.85
2022-08-21T04:42:53.387Z,16.88
2022-08-21T04:45:23.438Z,16.85
2022-08-21T04:47:53.013Z,16.85
2022-08-21T04:50:21.592Z,16.82
2022-08-21T04:52:48.473Z,16.83
2022-08-21T04:55:17.194Z,16.80
2022-08-21T04:57:48.589Z,16.73
2022-08-21T05:00:19.874Z,16.73
2022-08-21T05:02:48.736Z,16.80
2022-08-21T05:05:16.304Z,16.68
2022-08-21T05:07:44.814Z,16.66
2022-08-21T05:10:13.800Z,16.70
2022-08-21T05:12:43.007Z,16.73
2022-08-21T05:15:13.761Z,16.74
2022-08-21T05:17:41.789Z,16.84
2022-08-21T05:20:09.969Z,16.87
2022-08-21T05:22:36.816Z,16.99
2022-08-21T05:25:03.910Z,17.11
2022-08-21T05:27:37.058Z,17.08
2022-08-21T05:30:08.811Z,17.19
2022-08-21T05:32:36.251Z,17.41
2022-08-21T05:35:04.855Z,17.63
2022-08-21T05:37:31.467Z,17.88
2022-08-21T05:40:20.133Z,18.01
2022-08-21T05:42:45.642Z,18.07
2022-08-21T05:45:42.064Z,18.15
2022-08-21T05:48:11.742Z,18.24
2022-08-21T05:50:39.222Z,18.32
2022-08-21T05:53:07.442Z,18.44
2022-08-21T05:55:34.885Z,18.51
2022-08-21T05:58:01.714Z,18.55
2022-08-21T06:00:28.366Z,18.62
2022-08-21T06:02:55.030Z,18.64
2022-08-21T06:05:25.193Z,18.68
2022-08-21T06:08:03.989Z,18.82
2022-08-21T06:10:30.663Z,18.88
2022-08-21T06:12:57.584Z,18.82
2022-08-21T06:15:24.351Z,18.82
2022-08-21T06:17:50.931Z,18.83
2022-08-21T06:20:17.515Z,18.92
2022-08-21T06:22:44.085Z,19.00
2022-08-21T06:25:11.238Z,19.09
2022-08-21T06:27:38.101Z,19.23
2022-08-21T06:30:06.763Z,19.26
2022-08-21T06:32:33.628Z,19.33
2022-08-21T06:35:00.253Z,19.43
2022-08-21T06:37:26.906Z,19.47
2022-08-21T06:39:53.548Z,19.51
2022-08-21T06:42:20.217Z,19.52
2022-08-21T06:44:46.890Z,19.45
2022-08-21T06:47:13.540Z,19.39
2022-08-21T06:49:40.777Z,19.42
2022-08-21T06:52:11.442Z,19.35
2022-08-21T06:54:38.297Z,19.54
2022-08-21T06:57:05.191Z,19.71
2022-08-21T06:59:32.802Z,19.84
2022-08-21T07:02:00.647Z,19.87
2022-08-21T07:04:27.411Z,19.69
2022-08-21T07:06:54.189Z,19.62
2022-08-21T07:09:24.526Z,19.73
2022-08-21T07:11:54.757Z,19.77
2022-08-21T07:14:21.629Z,19.75
2022-08-21T07:16:49.680Z,20.04
2022-08-21T07:19:16.271Z,20.17
2022-08-21T07:21:42.847Z,20.30
2022-08-21T07:24:10.045Z,20.47
2022-08-21T07:26:37.437Z,20.85
2022-08-21T07:29:04.713Z,21.16
2022-08-21T07:31:31.665Z,21.24
2022-08-21T07:33:58.462Z,21.45
2022-08-21T07:36:25.059Z,21.62
2022-08-21T07:38:52.919Z,21.64
2022-08-21T07:41:23.701Z,21.62
2022-08-21T07:43:52.660Z,21.44
2022-08-21T07:46:19.883Z,21.42
2022-08-21T07:48:46.485Z,21.36
2022-08-21T07:51:15.623Z,21.70
2022-08-21T07:53:42.498Z,22.34
2022-08-21T07:56:12.190Z,22.49
2022-08-21T07:58:39.021Z,23.10
2022-08-21T08:01:07.532Z,22.94
2022-08-21T08:03:34.955Z,23.01
2022-08-21T08:06:02.015Z,22.70
2022-08-21T08:08:28.670Z,22.89
2022-08-21T08:10:57.839Z,23.27
2022-08-21T08:13:25.006Z,23.42
2022-08-21T08:15:52.103Z,23.49
2022-08-21T08:18:18.703Z,24.07
2022-08-21T08:20:45.993Z,24.25
2022-08-21T08:23:16.373Z,24.29
2022-08-21T08:25:43.065Z,24.09
2022-08-21T08:28:16.983Z,24.43
2022-08-21T08:30:46.432Z,25.37
2022-08-21T08:33:13.638Z,25.65
2022-08-21T08:35:48.495Z,26.14
2022-08-21T08:38:19.803Z,26.47
2022-08-21T08:41:14.038Z,26.47
2022-08-21T08:43:43.305Z,26.51
2022-08-21T08:46:17.289Z,26.32
2022-08-21T08:48:55.319Z,25.93
2022-08-21T08:51:42.197Z,25.56
2022-08-21T08:54:13.559Z,24.75
2022-08-21T08:56:40.370Z,23.99
2022-08-21T08:59:17.763Z,23.89
2022-08-21T09:01:44.951Z,23.48
2022-08-21T09:04:14.521Z,23.59
2022-08-21T09:06:46.693Z,23.54
2022-08-21T09:09:49.473Z,23.49
2022-08-21T09:12:51.792Z,24.19
2022-08-21T09:15:32.241Z,25.33
2022-08-21T09:18:37.603Z,26.17
2022-08-21T09:21:28.202Z,26.42
2022-08-21T09:24:00.858Z,27.45
2022-08-21T09:26:33.478Z,27.97
2022-08-21T09:29:01.734Z,27.25
2022-08-21T09:31:35.182Z,27.57
2022-08-21T09:34:04.431Z,27.51
2022-08-21T09:36:44.104Z,27.04
2022-08-21T09:39:13.966Z,26.96
2022-08-21T09:41:41.055Z,26.48
2022-08-21T09:44:09.914Z,26.51
2022-08-21T09:46:37.418Z,26.93
2022-08-21T09:49:06.821Z,27.28
2022-08-21T09:51:53.538Z,27.21
2022-08-21T09:54:26.612Z,27.62
2022-08-21T09:57:19.035Z,28.05
2022-08-21T09:59:47.913Z,27.57
2022-08-21T10:02:25.628Z,28.24
2022-08-21T10:04:57.522Z,28.51
2022-08-21T10:07:26.713Z,28.77
2022-08-21T10:10:08.367Z,28.67
2022-08-21T10:12:50.144Z,28.62
2022-08-21T10:15:46.278Z,28.65
2022-08-21T10:18:30.868Z,29.37
2022-08-21T10:21:15.645Z,27.86
2022-08-21T10:24:00.438Z,27.73
2022-08-21T10:26:48.443Z,27.28
2022-08-21T10:29:33.667Z,26.51
2022-08-21T10:32:14.164Z,25.80
2022-08-21T10:35:23.051Z,26.34
2022-08-21T10:38:50.481Z,25.96
2022-08-21T10:41:32.939Z,25.82
2022-08-21T10:44:12.869Z,25.80
2022-08-21T10:46:58.720Z,26.82
2022-08-21T10:49:51.631Z,28.03
2022-08-21T10:52:46.460Z,28.68
2022-08-21T10:55:19.107Z,29.70
2022-08-21T10:57:51.575Z,29.18
2022-08-21T11:00:43.393Z,29.24
2022-08-21T11:03:21.292Z,28.89
2022-08-21T11:05:52.831Z,28.77
2022-08-21T11:08:31.354Z,28.96
2022-08-21T11:11:13.512Z,28.99
2022-08-21T11:13:58.050Z,28.71
2022-08-21T11:16:37.711Z,27.51
2022-08-21T11:19:29.954Z,26.96
2022-08-21T11:22:14.813Z,26.02
2022-08-21T11:24:48.788Z,26.11
2022-08-21T11:27:41.351Z,25.98
2022-08-21T11:30:09.644Z,26.44
2022-08-21T11:33:01.709Z,26.16
2022-08-21T11:35:45.330Z,26.41
2022-08-21T11:38:29.057Z,26.50
2022-08-21T11:41:21.295Z,26.60
2022-08-21T11:43:53.229Z,27.45
2022-08-21T11:46:34.865Z,28.24
2022-08-21T11:49:10.372Z,29.05
2022-08-21T11:52:14.929Z,30.03
2022-08-21T11:54:50.966Z,30.30
2022-08-21T11:57:24.146Z,30.57
2022-08-21T11:59:57.052Z,30.88
2022-08-21T12:02:28.815Z,31.16
2022-08-21T12:05:08.455Z,31.04
2022-08-21T12:07:37.842Z,30.17
2022-08-21T12:10:09.953Z,30.62
2022-08-21T12:12:39.352Z,30.92
2022-08-21T12:15:20.821Z,31.11
2022-08-21T12:17:58.320Z,30.22
2022-08-21T12:20:59.944Z,29.60
2022-08-21T12:23:30.965Z,29.73
2022-08-21T12:26:25.131Z,30.06
2022-08-21T12:28:52.216Z,29.79
2022-08-21T12:31:21.750Z,29.39
2022-08-21T12:34:11.631Z,29.71
2022-08-21T12:36:48.126Z,29.49
2022-08-21T12:39:23.263Z,30.00
2022-08-21T12:42:17.974Z,30.36
2022-08-21T12:44:46.423Z,29.15
2022-08-21T12:47:25.905Z,28.38
2022-08-21T12:50:02.118Z,27.80
2022-08-21T12:52:39.358Z,28.00
2022-08-21T12:55:08.378Z,28.84
2022-08-21T12:57:37.293Z,29.55
2022-08-21T13:00:12.198Z,29.48
2022-08-21T13:02:43.973Z,29.05
2022-08-21T13:05:21.568Z,29.90
2022-08-21T13:07:49.994Z,29.13
2022-08-21T13:10:23.316Z,29.70
2022-08-21T13:12:50.167Z,29.75
2022-08-21T13:15:26.655Z,29.27
2022-08-21T13:18:03.561Z,29.14
2022-08-21T13:20:33.510Z,28.77
2022-08-21T13:23:06.979Z,29.11
2022-08-21T13:25:38.547Z,28.94
2022-08-21T13:28:15.819Z,29.20
2022-08-21T13:30:45.873Z,28.92
2022-08-21T13:33:16.464Z,28.75
2022-08-21T13:36:10.080Z,28.55
2022-08-21T13:38:38.332Z,28.05
2022-08-21T13:41:12.713Z,27.82
2022-08-21T13:43:39.437Z,27.92
2022-08-21T13:46:13.007Z,28.20
2022-08-21T13:48:39.945Z,28.19
2022-08-21T13:51:07.395Z,27.79
2022-08-21T13:53:53.405Z,28.04
2022-08-21T13:56:46.885Z,27.77
2022-08-21T13:59:24.054Z,27.61
2022-08-21T14:02:00.304Z,27.41
2022-08-21T14:04:37.747Z,27.11
2022-08-21T14:07:17.385Z,26.76
2022-08-21T14:09:45.681Z,27.06
2022-08-21T14:12:23.115Z,27.13
2022-08-21T14:14:52.092Z,27.18
2022-08-21T14:17:39.419Z,27.09
2022-08-21T14:20:13.051Z,26.94
2022-08-21T14:22:39.596Z,26.99
2022-08-21T14:25:20.316Z,27.34
2022-08-21T14:28:03.308Z,27.56
2022-08-21T14:30:39.101Z,27.22
2022-08-21T14:33:13.120Z,27.37
2022-08-21T14:35:40.923Z,26.96
2022-08-21T14:38:18.692Z,27.15
2022-08-21T14:40:50.643Z,27.16
2022-08-21T14:43:20.127Z,26.98
2022-08-21T14:45:47.726Z,27.02
2022-08-21T14:48:14.710Z,27.03
2022-08-21T14:50:41.535Z,27.08
2022-08-21T14:53:11.073Z,26.87
2022-08-21T14:55:58.277Z,26.71
2022-08-21T14:58:26.007Z,26.63
2022-08-21T15:00:54.998Z,26.98
2022-08-21T15:03:22.967Z,26.68
2022-08-21T15:05:50.156Z,26.53
2022-08-21T15:08:17.795Z,26.31
2022-08-21T15:11:08.607Z,26.51
2022-08-21T15:13:32.453Z,26.58
2022-08-21T15:15:59.708Z,26.54
2022-08-21T15:18:28.688Z,26.59
2022-08-21T15:20:55.273Z,26.57
2022-08-21T15:23:22.365Z,26.71
2022-08-21T15:25:50.172Z,26.52
2022-08-21T15:28:18.096Z,26.34
2022-08-21T15:30:46.181Z,26.49
2022-08-21T15:33:13.034Z,26.47
2022-08-21T15:35:41.174Z,26.49
2022-08-21T15:38:07.989Z,26.49
2022-08-21T15:40:39.535Z,26.20
2022-08-21T15:43:34.390Z,26.18
2022-08-21T15:46:02.309Z,26.19
2022-08-21T15:48:29.418Z,26.23
2022-08-21T15:50:56.080Z,26.39
2022-08-21T15:53:22.922Z,26.51
2022-08-21T15:55:49.631Z,26.44
2022-08-21T15:58:17.384Z,26.45
2022-08-21T16:00:45.698Z,26.26
2022-08-21T16:03:17.761Z,26.07
2022-08-21T16:05:46.038Z,26.06
2022-08-21T16:08:12.966Z,26.17
2022-08-21T16:10:40.917Z,26.16
2022-08-21T16:13:15.973Z,26.09
2022-08-21T16:15:42.954Z,26.13
2022-08-21T16:18:11.129Z,26.07
2022-08-21T16:20:37.815Z,26.09
2022-08-21T16:23:04.467Z,26.15
2022-08-21T16:25:34.051Z,26.03
2022-08-21T16:28:02.873Z,25.98
2022-08-21T16:30:30.773Z,25.96
2022-08-21T16:32:58.005Z,25.92
2022-08-21T16:35:25.324Z,25.91
2022-08-21T16:37:53.335Z,25.78
2022-08-21T16:40:20.842Z,25.74
2022-08-21T16:42:49.241Z,25.73
2022-08-21T16:45:19.084Z,25.65
2022-08-21T16:47:45.863Z,25.63
2022-08-21T16:50:17.921Z,25.53
2022-08-21T16:52:44.569Z,25.46
2022-08-21T16:55:11.351Z,25.37
2022-08-21T16:57:38.923Z,25.34
2022-08-21T17:00:12.923Z,25.28
2022-08-21T17:02:44.075Z,25.18
2022-08-21T17:05:12.935Z,25.17
2022-08-21T17:07:41.751Z,25.16
2022-08-21T17:10:09.515Z,24.99
2022-08-21T17:12:36.688Z,24.92
2022-08-21T17:15:12.890Z,24.81
2022-08-21T17:17:39.667Z,24.82
2022-08-21T17:20:07.467Z,24.84
2022-08-21T17:22:34.314Z,24.68
2022-08-21T17:25:01.112Z,24.65
2022-08-21T17:27:28.640Z,24.65
2022-08-21T17:29:56.266Z,24.58
2022-08-21T17:32:23.657Z,24.49
2022-08-21T17:34:50.396Z,24.42
2022-08-21T17:37:17.130Z,24.46
2022-08-21T17:39:44.079Z,24.48
2022-08-21T17:42:13.911Z,24.36
2022-08-21T17:44:45.779Z,24.41
2022-08-21T17:47:13.977Z,24.27
2022-08-21T17:49:41.537Z,24.24
2022-08-21T17:52:08.986Z,24.16
2022-08-21T17:54:37.085Z,24.04
2022-08-21T17:57:04.933Z,23.96
2022-08-21T17:59:32.518Z,23.87
2022-08-21T18:02:01.764Z,23.85
2022-08-21T18:04:29.898Z,23.69
2022-08-21T18:06:57.322Z,23.64
2022-08-21T18:09:28.282Z,23.56
2022-08-21T18:11:58.979Z,23.41
2022-08-21T18:14:29.922Z,23.25
2022-08-21T18:16:56.983Z,23.19
2022-08-21T18:19:26.272Z,23.12
2022-08-21T18:21:54.862Z,22.99
2022-08-21T18:24:22.526Z,22.89
2022-08-21T18:26:50.458Z,22.77
2022-08-21T18:29:20.769Z,22.61
2022-08-21T18:31:49.010Z,22.46
2022-08-21T18:34:34.457Z,22.31
2022-08-21T18:37:02.667Z,21.94
2022-08-21T18:39:38.228Z,21.75
2022-08-21T18:42:11.272Z,21.42
2022-08-21T18:44:40.133Z,21.25
2022-08-21T18:47:14.609Z,21.11
2022-08-21T18:52:28.502Z,20.89
2022-08-21T18:54:55.604Z,20.79
2022-08-21T18:57:24.199Z,20.69
2022-08-21T18:59:51.133Z,20.72
2022-08-21T19:02:18.146Z,20.78
2022-08-21T19:04:45.288Z,20.66
2022-08-21T19:07:14.188Z,20.52
2022-08-21T19:09:42.402Z,20.31
2022-08-21T19:12:18.690Z,20.20
2022-08-21T19:14:45.939Z,20.09
2022-08-21T19:17:13.817Z,20.07
2022-08-21T19:19:40.773Z,19.91
2022-08-21T19:22:10.964Z,19.85
2022-08-21T19:24:39.633Z,19.80
2022-08-21T19:27:16.972Z,19.70
2022-08-21T19:29:44.050Z,19.71
2022-08-21T19:32:11.619Z,19.73
2022-08-21T19:34:39.370Z,19.76
2022-08-21T19:37:06.554Z,19.64
2022-08-21T19:39:42.487Z,19.55
2022-08-21T19:42:13.736Z,19.48
2022-08-21T19:44:41.091Z,19.37
2022-08-21T19:47:19.044Z,19.25
2022-08-21T19:49:50.830Z,19.20
2022-08-21T19:52:18.262Z,19.20
2022-08-21T19:54:45.022Z,19.13
2022-08-21T19:57:12.931Z,19.07
2022-08-21T19:59:40.869Z,18.83
2022-08-21T20:02:09.503Z,18.66
2022-08-21T20:04:36.958Z,18.52
2022-08-21T20:07:04.789Z,18.49
2022-08-21T20:09:37.301Z,18.41
2022-08-21T20:12:10.232Z,18.41
2022-08-21T20:14:43.072Z,18.47
2022-08-21T20:17:12.780Z,18.49
2022-08-21T20:19:43.351Z,18.44
2022-08-21T20:22:12.090Z,18.45
2022-08-21T20:24:39.762Z,18.40
2022-08-21T20:27:11.195Z,18.32
2022-08-21T20:29:39.434Z,18.30
2022-08-21T20:32:08.124Z,18.40
2022-08-21T20:34:39.711Z,18.74
2022-08-21T20:37:06.476Z,18.85
2022-08-21T20:39:36.001Z,18.99
2022-08-21T20:42:04.859Z,19.21
2022-08-21T20:44:34.004Z,19.18
2022-08-21T20:47:08.519Z,19.23
2022-08-21T20:49:43.174Z,19.24
2022-08-21T20:55:07.402Z,19.28
2022-08-21T20:57:36.846Z,19.37
2022-08-21T21:00:14.443Z,19.29
2022-08-21T21:03:05.062Z,19.20
2022-08-21T21:05:39.555Z,19.20
2022-08-21T21:08:28.352Z,19.22
2022-08-21T21:11:16.383Z,19.32
2022-08-21T21:13:51.467Z,19.24
2022-08-21T21:16:24.626Z,19.27
2022-08-21T21:19:04.729Z,19.12
2022-08-21T21:21:36.009Z,18.98
2022-08-21T21:24:07.922Z,18.74
2022-08-21T21:26:38.889Z,18.54
2022-08-21T21:29:29.853Z,18.55
2022-08-21T21:31:56.779Z,18.53
2022-08-21T21:34:26.765Z,18.56
2022-08-21T21:37:04.581Z,18.59
2022-08-21T21:39:39.985Z,18.65
2022-08-21T21:42:30.147Z,18.74
2022-08-21T21:45:24.477Z,18.84
2022-08-21T21:48:21.118Z,18.94
2022-08-21T21:51:00.751Z,18.89
2022-08-21T21:53:51.929Z,18.87
2022-08-21T21:56:40.422Z,18.86
2022-08-21T21:59:25.653Z,18.82
2022-08-21T22:02:14.507Z,18.76
2022-08-21T22:05:06.130Z,18.74
2022-08-21T22:07:46.712Z,18.75
2022-08-21T22:10:30.505Z,18.77
2022-08-21T22:13:26.282Z,18.73
2022-08-21T22:15:54.738Z,18.69
2022-08-21T22:18:31.932Z,18.61
2022-08-21T22:21:09.919Z,18.59
2022-08-21T22:23:42.785Z,18.61
2022-08-21T22:26:16.665Z,18.49
2022-08-21T22:28:49.830Z,18.32
2022-08-21T22:31:32.750Z,18.11
2022-08-21T22:34:18.297Z,17.91
2022-08-21T22:37:07.581Z,17.70
2022-08-21T22:39:43.706Z,17.64
2022-08-21T22:42:24.763Z,17.52
2022-08-21T22:44:57.324Z,17.38
2022-08-21T22:47:34.801Z,17.34
2022-08-21T22:50:06.673Z,17.41
2022-08-21T22:52:36.573Z,17.52
2022-08-21T22:58:31.336Z,17.40
2022-08-21T23:01:04.116Z,17.33
2022-08-21T23:03:43.710Z,17.34
2022-08-21T23:06:34.883Z,17.25
2022-08-21T23:09:02.259Z,17.28
2022-08-21T23:11:41.158Z,17.28
2022-08-21T23:14:11.946Z,17.27
2022-08-21T23:17:08.745Z,17.25
2022-08-21T23:19:50.638Z,17.15
2022-08-21T23:22:36.236Z,17.12
2022-08-21T23:25:17.318Z,17.11
2022-08-21T23:28:04.354Z,17.08
2022-08-21T23:30:51.372Z,17.00
2022-08-21T23:33:38.799Z,16.90
2022-08-21T23:37:00.945Z,16.81
2022-08-21T23:39:43.000Z,16.71
2022-08-21T23:42:36.982Z,16.63
2022-08-21T23:45:14.430Z,16.54
2022-08-21T23:48:06.975Z,16.42
2022-08-21T23:51:08.483Z,16.26
2022-08-21T23:53:55.590Z,16.20
2022-08-21T23:56:49.486Z,16.12
2022-08-21T23:59:43.685Z,16.09
